sensor_id;sensor_type;location;lat;lon;timestamp;P1;durP1;ratioP1;P2;durP2;ratioP2
22046;SDS011;11187;49.412;20.956;2023-03-11T00:02:28;23.63;;;21.60;;
22046;SDS011;11187;49.412;20.956;2023-03-11T00:05:01;29.05;;;22.52;;
22046;SDS011;11187;49.412;20.956;2023-03-11T00:07:55;26.30;;;23.45;;
22046;SDS011;11187;49.412;20.956;2023-03-11T00:10:56;28.27;;;24.23;;
22046;SDS011;11187;49.412;20.956;2023-03-11T00:13:51;37.00;;;27.30;;
22046;SDS011;11187;49.412;20.956;2023-03-11T00:16:24;28.58;;;25.42;;
22046;SDS011;11187;49.412;20.956;2023-03-11T00:19:11;29.67;;;24.70;;
22046;SDS011;11187;49.412;20.956;2023-03-11T00:21:44;24.52;;;21.98;;
22046;SDS011;11187;49.412;20.956;2023-03-11T00:24:31;27.45;;;22.90;;
22046;SDS011;11187;49.412;20.956;2023-03-11T00:27:04;24.08;;;21.88;;
22046;SDS011;11187;49.412;20.956;2023-03-11T00:29:51;24.48;;;22.15;;
22046;SDS011;11187;49.412;20.956;2023-03-11T00:32:24;24.58;;;21.42;;
22046;SDS011;11187;49.412;20.956;2023-03-11T00:35:19;21.42;;;19.23;;
22046;SDS011;11187;49.412;20.956;2023-03-11T00:38:16;19.88;;;18.25;;
22046;SDS011;11187;49.412;20.956;2023-03-11T00:41:10;21.33;;;19.42;;
22046;SDS011;11187;49.412;20.956;2023-03-11T00:44:04;23.73;;;21.67;;
22046;SDS011;11187;49.412;20.956;2023-03-11T00:46:58;23.90;;;21.45;;
22046;SDS011;11187;49.412;20.956;2023-03-11T00:49:52;23.55;;;21.38;;
22046;SDS011;11187;49.412;20.956;2023-03-11T00:52:46;23.85;;;21.55;;
22046;SDS011;11187;49.412;20.956;2023-03-11T00:55:21;23.50;;;21.30;;
22046;SDS011;11187;49.412;20.956;2023-03-11T00:58:10;22.50;;;20.52;;
22046;SDS011;11187;49.412;20.956;2023-03-11T01:00:44;24.45;;;21.88;;
22046;SDS011;11187;49.412;20.956;2023-03-11T01:03:38;25.65;;;22.95;;
22046;SDS011;11187;49.412;20.956;2023-03-11T01:06:12;25.08;;;21.70;;
22046;SDS011;11187;49.412;20.956;2023-03-11T01:09:18;23.08;;;20.88;;
22046;SDS011;11187;49.412;20.956;2023-03-11T01:12:12;22.83;;;20.52;;
22046;SDS011;11187;49.412;20.956;2023-03-11T01:15:06;22.10;;;20.30;;
22046;SDS011;11187;49.412;20.956;2023-03-11T01:17:40;21.42;;;19.52;;
22046;SDS011;11187;49.412;20.956;2023-03-11T01:20:27;21.92;;;20.33;;
22046;SDS011;11187;49.412;20.956;2023-03-11T01:23:00;22.00;;;20.08;;
22046;SDS011;11187;49.412;20.956;2023-03-11T01:25:47;19.00;;;17.38;;
22046;SDS011;11187;49.412;20.956;2023-03-11T01:28:20;19.13;;;17.73;;
22046;SDS011;11187;49.412;20.956;2023-03-11T01:31:08;18.98;;;17.52;;
22046;SDS011;11187;49.412;20.956;2023-03-11T01:33:41;17.45;;;16.25;;
22046;SDS011;11187;49.412;20.956;2023-03-11T01:36:35;17.73;;;16.63;;
22046;SDS011;11187;49.412;20.956;2023-03-11T01:39:08;17.05;;;15.95;;
22046;SDS011;11187;49.412;20.956;2023-03-11T01:41:55;18.33;;;16.98;;
22046;SDS011;11187;49.412;20.956;2023-03-11T01:44:28;18.65;;;17.45;;
22046;SDS011;11187;49.412;20.956;2023-03-11T01:47:32;19.77;;;18.58;;
22046;SDS011;11187;49.412;20.956;2023-03-11T01:50:08;19.40;;;18.20;;
22046;SDS011;11187;49.412;20.956;2023-03-11T01:52:58;20.60;;;19.27;;
22046;SDS011;11187;49.412;20.956;2023-03-11T01:55:31;18.85;;;17.77;;
22046;SDS011;11187;49.412;20.956;2023-03-11T01:58:27;19.23;;;18.02;;
22046;SDS011;11187;49.412;20.956;2023-03-11T02:01:04;20.00;;;18.70;;
22046;SDS011;11187;49.412;20.956;2023-03-11T02:04:00;20.00;;;18.63;;
22046;SDS011;11187;49.412;20.956;2023-03-11T02:06:34;19.20;;;17.88;;
22046;SDS011;11187;49.412;20.956;2023-03-11T02:09:21;18.23;;;17.13;;
22046;SDS011;11187;49.412;20.956;2023-03-11T02:11:55;20.38;;;18.75;;
22046;SDS011;11187;49.412;20.956;2023-03-11T02:14:44;19.58;;;18.27;;
22046;SDS011;11187;49.412;20.956;2023-03-11T02:17:20;19.85;;;18.65;;
22046;SDS011;11187;49.412;20.956;2023-03-11T02:20:11;18.67;;;17.42;;
22046;SDS011;11187;49.412;20.956;2023-03-11T02:22:51;19.10;;;17.90;;
22046;SDS011;11187;49.412;20.956;2023-03-11T02:28:39;19.52;;;18.13;;
22046;SDS011;11187;49.412;20.956;2023-03-11T02:31:36;18.77;;;17.55;;
22046;SDS011;11187;49.412;20.956;2023-03-11T02:34:33;21.15;;;19.67;;
22046;SDS011;11187;49.412;20.956;2023-03-11T02:37:08;18.40;;;17.27;;
22046;SDS011;11187;49.412;20.956;2023-03-11T02:40:26;19.83;;;18.63;;
22046;SDS011;11187;49.412;20.956;2023-03-11T02:43:09;18.33;;;17.13;;
22046;SDS011;11187;49.412;20.956;2023-03-11T02:46:07;19.42;;;18.13;;
22046;SDS011;11187;49.412;20.956;2023-03-11T02:49:04;18.27;;;16.98;;
22046;SDS011;11187;49.412;20.956;2023-03-11T02:51:38;21.60;;;19.80;;
22046;SDS011;11187;49.412;20.956;2023-03-11T02:54:25;20.83;;;19.23;;
22046;SDS011;11187;49.412;20.956;2023-03-11T02:56:58;21.33;;;19.75;;
22046;SDS011;11187;49.412;20.956;2023-03-11T02:59:45;20.10;;;18.48;;
22046;SDS011;11187;49.412;20.956;2023-03-11T03:02:19;20.75;;;19.15;;
22046;SDS011;11187;49.412;20.956;2023-03-11T03:05:13;19.27;;;17.88;;
22046;SDS011;11187;49.412;20.956;2023-03-11T03:07:46;19.13;;;17.83;;
22046;SDS011;11187;49.412;20.956;2023-03-11T03:10:34;20.02;;;18.38;;
22046;SDS011;11187;49.412;20.956;2023-03-11T03:13:07;21.23;;;19.73;;
22046;SDS011;11187;49.412;20.956;2023-03-11T03:16:01;20.67;;;19.27;;
22046;SDS011;11187;49.412;20.956;2023-03-11T03:18:34;19.50;;;18.20;;
22046;SDS011;11187;49.412;20.956;2023-03-11T03:21:21;19.77;;;18.35;;
22046;SDS011;11187;49.412;20.956;2023-03-11T03:23:54;19.77;;;18.25;;
22046;SDS011;11187;49.412;20.956;2023-03-11T03:26:48;18.75;;;17.52;;
22046;SDS011;11187;49.412;20.956;2023-03-11T03:29:21;19.70;;;18.30;;
22046;SDS011;11187;49.412;20.956;2023-03-11T03:32:08;19.73;;;18.40;;
22046;SDS011;11187;49.412;20.956;2023-03-11T03:34:41;15.65;;;14.55;;
22046;SDS011;11187;49.412;20.956;2023-03-11T03:37:35;15.63;;;14.52;;
22046;SDS011;11187;49.412;20.956;2023-03-11T03:40:09;14.02;;;13.05;;
22046;SDS011;11187;49.412;20.956;2023-03-11T03:43:04;14.50;;;13.60;;
22046;SDS011;11187;49.412;20.956;2023-03-11T03:45:59;14.32;;;13.43;;
22046;SDS011;11187;49.412;20.956;2023-03-11T03:48:55;15.43;;;14.32;;
22046;SDS011;11187;49.412;20.956;2023-03-11T03:51:28;12.25;;;11.48;;
22046;SDS011;11187;49.412;20.956;2023-03-11T03:54:22;13.68;;;12.88;;
22046;SDS011;11187;49.412;20.956;2023-03-11T03:56:56;12.55;;;11.75;;
22046;SDS011;11187;49.412;20.956;2023-03-11T03:59:43;12.90;;;12.00;;
22046;SDS011;11187;49.412;20.956;2023-03-11T04:02:16;13.00;;;12.20;;
22046;SDS011;11187;49.412;20.956;2023-03-11T04:05:10;13.23;;;12.45;;
22046;SDS011;11187;49.412;20.956;2023-03-11T04:08:04;11.93;;;11.23;;
22046;SDS011;11187;49.412;20.956;2023-03-11T04:10:37;12.15;;;11.35;;
22046;SDS011;11187;49.412;20.956;2023-03-11T04:13:24;12.70;;;11.90;;
22046;SDS011;11187;49.412;20.956;2023-03-11T04:15:57;13.00;;;12.20;;
22046;SDS011;11187;49.412;20.956;2023-03-11T04:18:52;13.13;;;12.23;;
22046;SDS011;11187;49.412;20.956;2023-03-11T04:21:25;11.57;;;10.82;;
22046;SDS011;11187;49.412;20.956;2023-03-11T04:24:12;11.90;;;11.20;;
22046;SDS011;11187;49.412;20.956;2023-03-11T04:26:45;11.23;;;10.63;;
22046;SDS011;11187;49.412;20.956;2023-03-11T04:29:32;11.75;;;11.05;;
22046;SDS011;11187;49.412;20.956;2023-03-11T04:32:05;12.15;;;11.35;;
22046;SDS011;11187;49.412;20.956;2023-03-11T04:34:53;11.65;;;10.95;;
22046;SDS011;11187;49.412;20.956;2023-03-11T04:37:29;11.63;;;10.93;;
22046;SDS011;11187;49.412;20.956;2023-03-11T04:40:16;10.73;;;10.05;;
22046;SDS011;11187;49.412;20.956;2023-03-11T04:42:49;10.68;;;10.07;;
22046;SDS011;11187;49.412;20.956;2023-03-11T04:45:39;11.10;;;10.40;;
22046;SDS011;11187;49.412;20.956;2023-03-11T04:48:33;10.80;;;10.10;;
22046;SDS011;11187;49.412;20.956;2023-03-11T04:51:06;10.43;;;9.50;;
22046;SDS011;11187;49.412;20.956;2023-03-11T04:53:53;10.38;;;9.77;;
22046;SDS011;11187;49.412;20.956;2023-03-11T04:56:26;12.30;;;11.60;;
22046;SDS011;11187;49.412;20.956;2023-03-11T04:59:13;12.95;;;12.13;;
22046;SDS011;11187;49.412;20.956;2023-03-11T05:01:46;11.27;;;10.57;;
22046;SDS011;11187;49.412;20.956;2023-03-11T05:04:33;10.55;;;9.85;;
22046;SDS011;11187;49.412;20.956;2023-03-11T05:07:06;10.93;;;10.23;;
22046;SDS011;11187;49.412;20.956;2023-03-11T05:09:53;14.40;;;13.60;;
22046;SDS011;11187;49.412;20.956;2023-03-11T05:12:26;13.55;;;12.75;;
22046;SDS011;11187;49.412;20.956;2023-03-11T05:15:20;12.07;;;11.38;;
22046;SDS011;11187;49.412;20.956;2023-03-11T05:17:53;12.43;;;11.63;;
22046;SDS011;11187;49.412;20.956;2023-03-11T05:20:40;12.88;;;11.98;;
22046;SDS011;11187;49.412;20.956;2023-03-11T05:23:13;12.95;;;12.15;;
22046;SDS011;11187;49.412;20.956;2023-03-11T05:26:00;12.68;;;11.73;;
22046;SDS011;11187;49.412;20.956;2023-03-11T05:28:33;13.52;;;12.63;;
22046;SDS011;11187;49.412;20.956;2023-03-11T05:31:27;13.20;;;12.30;;
22046;SDS011;11187;49.412;20.956;2023-03-11T05:34:21;13.27;;;12.48;;
22046;SDS011;11187;49.412;20.956;2023-03-11T05:36:54;12.00;;;11.23;;
22046;SDS011;11187;49.412;20.956;2023-03-11T05:39:42;12.85;;;11.95;;
22046;SDS011;11187;49.412;20.956;2023-03-11T05:42:15;13.75;;;12.85;;
22046;SDS011;11187;49.412;20.956;2023-03-11T05:45:02;13.45;;;12.55;;
22046;SDS011;11187;49.412;20.956;2023-03-11T05:47:56;14.50;;;13.50;;
22046;SDS011;11187;49.412;20.956;2023-03-11T05:50:29;14.77;;;13.75;;
22046;SDS011;11187;49.412;20.956;2023-03-11T05:53:23;13.88;;;12.77;;
22046;SDS011;11187;49.412;20.956;2023-03-11T05:56:18;14.48;;;13.48;;
22046;SDS011;11187;49.412;20.956;2023-03-11T05:58:55;15.75;;;14.70;;
22046;SDS011;11187;49.412;20.956;2023-03-11T06:01:50;16.40;;;15.13;;
22046;SDS011;11187;49.412;20.956;2023-03-11T06:04:44;15.25;;;13.90;;
22046;SDS011;11187;49.412;20.956;2023-03-11T06:07:17;14.13;;;13.13;;
22046;SDS011;11187;49.412;20.956;2023-03-11T06:10:11;16.77;;;15.05;;
22046;SDS011;11187;49.412;20.956;2023-03-11T06:13:06;15.07;;;13.70;;
22046;SDS011;11187;49.412;20.956;2023-03-11T06:16:00;14.55;;;13.13;;
22046;SDS011;11187;49.412;20.956;2023-03-11T06:18:33;14.93;;;13.45;;
22046;SDS011;11187;49.412;20.956;2023-03-11T06:21:27;12.90;;;11.70;;
22046;SDS011;11187;49.412;20.956;2023-03-11T06:24:21;12.43;;;11.38;;
22046;SDS011;11187;49.412;20.956;2023-03-11T06:26:54;13.10;;;11.82;;
22046;SDS011;11187;49.412;20.956;2023-03-11T06:29:41;13.48;;;12.38;;
22046;SDS011;11187;49.412;20.956;2023-03-11T06:32:14;13.95;;;12.90;;
22046;SDS011;11187;49.412;20.956;2023-03-11T06:35:08;15.80;;;14.63;;
22046;SDS011;11187;49.412;20.956;2023-03-11T06:38:02;15.10;;;13.90;;
22046;SDS011;11187;49.412;20.956;2023-03-11T06:40:36;13.95;;;12.82;;
22046;SDS011;11187;49.412;20.956;2023-03-11T06:43:30;12.55;;;11.65;;
22046;SDS011;11187;49.412;20.956;2023-03-11T06:46:11;13.65;;;12.65;;
22046;SDS011;11187;49.412;20.956;2023-03-11T06:49:01;13.52;;;12.43;;
22046;SDS011;11187;49.412;20.956;2023-03-11T06:51:35;15.52;;;14.23;;
22046;SDS011;11187;49.412;20.956;2023-03-11T06:54:22;15.25;;;13.95;;
22046;SDS011;11187;49.412;20.956;2023-03-11T06:56:55;16.48;;;15.07;;
22046;SDS011;11187;49.412;20.956;2023-03-11T06:59:42;17.73;;;15.98;;
22046;SDS011;11187;49.412;20.956;2023-03-11T07:02:15;22.85;;;19.38;;
22046;SDS011;11187;49.412;20.956;2023-03-11T07:05:02;18.75;;;16.90;;
22046;SDS011;11187;49.412;20.956;2023-03-11T07:07:35;17.40;;;15.88;;
22046;SDS011;11187;49.412;20.956;2023-03-11T07:10:29;17.70;;;16.33;;
22046;SDS011;11187;49.412;20.956;2023-03-11T07:13:23;19.48;;;17.20;;
22046;SDS011;11187;49.412;20.956;2023-03-11T07:16:18;17.40;;;16.10;;
22046;SDS011;11187;49.412;20.956;2023-03-11T07:18:54;18.27;;;16.67;;
22046;SDS011;11187;49.412;20.956;2023-03-11T07:21:52;17.13;;;15.68;;
22046;SDS011;11187;49.412;20.956;2023-03-11T07:24:25;16.20;;;14.85;;
22046;SDS011;11187;49.412;20.956;2023-03-11T07:27:19;17.85;;;16.25;;
22046;SDS011;11187;49.412;20.956;2023-03-11T07:30:13;17.00;;;15.73;;
22046;SDS011;11187;49.412;20.956;2023-03-11T07:33:07;13.55;;;12.68;;
22046;SDS011;11187;49.412;20.956;2023-03-11T07:35:40;13.27;;;12.48;;
22046;SDS011;11187;49.412;20.956;2023-03-11T07:38:30;13.75;;;12.95;;
22046;SDS011;11187;49.412;20.956;2023-03-11T07:41:04;14.10;;;13.30;;
22046;SDS011;11187;49.412;20.956;2023-03-11T07:43:58;14.70;;;13.80;;
22046;SDS011;11187;49.412;20.956;2023-03-11T07:46:35;13.10;;;12.40;;
22046;SDS011;11187;49.412;20.956;2023-03-11T07:49:29;16.08;;;15.18;;
22046;SDS011;11187;49.412;20.956;2023-03-11T07:52:23;12.95;;;11.88;;
22046;SDS011;11187;49.412;20.956;2023-03-11T07:54:57;12.73;;;12.02;;
22046;SDS011;11187;49.412;20.956;2023-03-11T07:57:46;13.35;;;12.60;;
22046;SDS011;11187;49.412;20.956;2023-03-11T08:00:20;11.25;;;10.57;;
22046;SDS011;11187;49.412;20.956;2023-03-11T08:03:14;13.68;;;12.88;;
22046;SDS011;11187;49.412;20.956;2023-03-11T08:05:47;12.40;;;11.70;;
22046;SDS011;11187;49.412;20.956;2023-03-11T08:08:41;13.20;;;12.30;;
22046;SDS011;11187;49.412;20.956;2023-03-11T08:11:36;12.32;;;11.52;;
22046;SDS011;11187;49.412;20.956;2023-03-11T08:14:09;11.90;;;11.20;;
22046;SDS011;11187;49.412;20.956;2023-03-11T08:16:56;12.15;;;11.45;;
22046;SDS011;11187;49.412;20.956;2023-03-11T08:19:29;13.93;;;13.13;;
22046;SDS011;11187;49.412;20.956;2023-03-11T08:22:23;14.05;;;13.20;;
22046;SDS011;11187;49.412;20.956;2023-03-11T08:24:56;13.57;;;12.77;;
22046;SDS011;11187;49.412;20.956;2023-03-11T08:27:43;13.25;;;12.45;;
22046;SDS011;11187;49.412;20.956;2023-03-11T08:30:16;12.20;;;11.50;;
22046;SDS011;11187;49.412;20.956;2023-03-11T08:33:03;13.30;;;12.55;;
22046;SDS011;11187;49.412;20.956;2023-03-11T08:35:36;14.18;;;13.38;;
22046;SDS011;11187;49.412;20.956;2023-03-11T08:38:23;13.85;;;13.05;;
22046;SDS011;11187;49.412;20.956;2023-03-11T08:40:56;12.50;;;11.73;;
22046;SDS011;11187;49.412;20.956;2023-03-11T08:43:50;12.93;;;12.13;;
22046;SDS011;11187;49.412;20.956;2023-03-11T08:46:33;13.52;;;12.80;;
22046;SDS011;11187;49.412;20.956;2023-03-11T08:49:22;14.52;;;13.52;;
22046;SDS011;11187;49.412;20.956;2023-03-11T08:51:55;12.88;;;11.98;;
22046;SDS011;11187;49.412;20.956;2023-03-11T08:54:42;14.70;;;13.60;;
22046;SDS011;11187;49.412;20.956;2023-03-11T08:57:15;13.95;;;12.93;;
22046;SDS011;11187;49.412;20.956;2023-03-11T09:00:03;11.10;;;10.27;;
22046;SDS011;11187;49.412;20.956;2023-03-11T09:02:38;12.25;;;11.40;;
22046;SDS011;11187;49.412;20.956;2023-03-11T09:05:26;11.90;;;11.10;;
22046;SDS011;11187;49.412;20.956;2023-03-11T09:07:59;12.25;;;11.25;;
22046;SDS011;11187;49.412;20.956;2023-03-11T09:10:54;12.93;;;12.13;;
22046;SDS011;11187;49.412;20.956;2023-03-11T09:13:27;12.15;;;11.35;;
22046;SDS011;11187;49.412;20.956;2023-03-11T09:16:21;12.10;;;11.20;;
22046;SDS011;11187;49.412;20.956;2023-03-11T09:19:15;12.70;;;11.90;;
22046;SDS011;11187;49.412;20.956;2023-03-11T09:21:48;12.27;;;11.48;;
22046;SDS011;11187;49.412;20.956;2023-03-11T09:24:42;13.95;;;13.05;;
22046;SDS011;11187;49.412;20.956;2023-03-11T09:27:36;11.65;;;10.95;;
22046;SDS011;11187;49.412;20.956;2023-03-11T09:30:10;12.90;;;12.10;;
22046;SDS011;11187;49.412;20.956;2023-03-11T09:32:58;13.00;;;12.20;;
22046;SDS011;11187;49.412;20.956;2023-03-11T09:35:31;12.80;;;12.00;;
22046;SDS011;11187;49.412;20.956;2023-03-11T09:38:18;13.43;;;12.52;;
22046;SDS011;11187;49.412;20.956;2023-03-11T09:40:57;14.30;;;13.23;;
22046;SDS011;11187;49.412;20.956;2023-03-11T09:43:59;14.30;;;13.40;;
22046;SDS011;11187;49.412;20.956;2023-03-11T09:52:32;15.18;;;14.15;;
22046;SDS011;11187;49.412;20.956;2023-03-11T09:58:17;12.02;;;11.20;;
22046;SDS011;11187;49.412;20.956;2023-03-11T10:01:12;12.50;;;11.73;;
22046;SDS011;11187;49.412;20.956;2023-03-11T10:03:50;13.50;;;12.70;;
22046;SDS011;11187;49.412;20.956;2023-03-11T10:06:47;14.80;;;13.55;;
22046;SDS011;11187;49.412;20.956;2023-03-11T10:21:42;12.93;;;12.13;;
22046;SDS011;11187;49.412;20.956;2023-03-11T10:27:13;14.73;;;13.73;;
22046;SDS011;11187;49.412;20.956;2023-03-11T10:29:54;14.73;;;13.65;;
22046;SDS011;11187;49.412;20.956;2023-03-11T10:36:05;15.18;;;14.27;;
22046;SDS011;11187;49.412;20.956;2023-03-11T10:38:57;14.15;;;13.05;;
22046;SDS011;11187;49.412;20.956;2023-03-11T10:44:57;14.38;;;13.48;;
22046;SDS011;11187;49.412;20.956;2023-03-11T10:47:51;15.10;;;14.10;;
22046;SDS011;11187;49.412;20.956;2023-03-11T10:53:52;15.10;;;14.10;;
22046;SDS011;11187;49.412;20.956;2023-03-11T10:56:49;16.20;;;15.27;;
22046;SDS011;11187;49.412;20.956;2023-03-11T10:59:57;15.93;;;14.88;;
22046;SDS011;11187;49.412;20.956;2023-03-11T11:02:32;17.17;;;16.00;;
22046;SDS011;11187;49.412;20.956;2023-03-11T11:05:31;14.70;;;13.75;;
22046;SDS011;11187;49.412;20.956;2023-03-11T11:10:53;16.15;;;15.07;;
22046;SDS011;11187;49.412;20.956;2023-03-11T11:13:29;16.38;;;15.30;;
22046;SDS011;11187;49.412;20.956;2023-03-11T11:16:18;16.45;;;15.30;;
22046;SDS011;11187;49.412;20.956;2023-03-11T11:21:50;14.38;;;13.48;;
22046;SDS011;11187;49.412;20.956;2023-03-11T11:24:24;14.32;;;13.43;;
22046;SDS011;11187;49.412;20.956;2023-03-11T11:27:20;17.80;;;16.70;;
22046;SDS011;11187;49.412;20.956;2023-03-11T11:30:02;18.35;;;17.25;;
22046;SDS011;11187;49.412;20.956;2023-03-11T11:32:52;17.05;;;16.05;;
22046;SDS011;11187;49.412;20.956;2023-03-11T11:35:28;14.80;;;13.80;;
22046;SDS011;11187;49.412;20.956;2023-03-11T11:38:22;18.52;;;17.25;;
22046;SDS011;11187;49.412;20.956;2023-03-11T11:41:21;18.55;;;17.35;;
22046;SDS011;11187;49.412;20.956;2023-03-11T11:44:05;18.45;;;17.17;;
22046;SDS011;11187;49.412;20.956;2023-03-11T11:47:12;19.83;;;18.52;;
22046;SDS011;11187;49.412;20.956;2023-03-11T11:50:24;17.35;;;16.15;;
22046;SDS011;11187;49.412;20.956;2023-03-11T11:53:29;15.48;;;14.40;;
22046;SDS011;11187;49.412;20.956;2023-03-11T11:56:11;18.50;;;17.40;;
22046;SDS011;11187;49.412;20.956;2023-03-11T11:58:58;16.10;;;15.10;;
22046;SDS011;11187;49.412;20.956;2023-03-11T12:04:30;17.50;;;16.40;;
22046;SDS011;11187;49.412;20.956;2023-03-11T12:07:24;16.08;;;14.77;;
22046;SDS011;11187;49.412;20.956;2023-03-11T12:16:08;17.80;;;16.70;;
22046;SDS011;11187;49.412;20.956;2023-03-11T12:18:52;16.85;;;15.82;;
22046;SDS011;11187;49.412;20.956;2023-03-11T12:31:28;16.13;;;15.13;;
22046;SDS011;11187;49.412;20.956;2023-03-11T12:34:09;16.13;;;15.13;;
22046;SDS011;11187;49.412;20.956;2023-03-11T12:36:58;11.23;;;10.52;;
22046;SDS011;11187;49.412;20.956;2023-03-11T12:39:35;13.07;;;12.13;;
22046;SDS011;11187;49.412;20.956;2023-03-11T12:42:22;11.77;;;11.05;;
22046;SDS011;11187;49.412;20.956;2023-03-11T12:44:58;12.02;;;11.20;;
22046;SDS011;11187;49.412;20.956;2023-03-11T12:48:47;12.65;;;11.93;;
22046;SDS011;11187;49.412;20.956;2023-03-11T12:51:40;11.00;;;10.30;;
22046;SDS011;11187;49.412;20.956;2023-03-11T12:54:35;13.15;;;12.25;;
22046;SDS011;11187;49.412;20.956;2023-03-11T13:06:36;13.25;;;12.40;;
22046;SDS011;11187;49.412;20.956;2023-03-11T13:09:24;14.13;;;13.23;;
22046;SDS011;11187;49.412;20.956;2023-03-11T13:15:41;13.05;;;12.15;;
22046;SDS011;11187;49.412;20.956;2023-03-11T13:18:23;12.48;;;11.68;;
22046;SDS011;11187;49.412;20.956;2023-03-11T13:21:02;11.90;;;11.10;;
22046;SDS011;11187;49.412;20.956;2023-03-11T13:23:49;11.88;;;11.07;;
22046;SDS011;11187;49.412;20.956;2023-03-11T13:38:38;13.40;;;12.50;;
22046;SDS011;11187;49.412;20.956;2023-03-11T13:41:54;13.65;;;12.75;;
22046;SDS011;11187;49.412;20.956;2023-03-11T13:44:50;14.50;;;13.35;;
22046;SDS011;11187;49.412;20.956;2023-03-11T13:47:24;12.32;;;11.52;;
22046;SDS011;11187;49.412;20.956;2023-03-11T13:50:13;14.30;;;13.40;;
22046;SDS011;11187;49.412;20.956;2023-03-11T13:52:57;14.80;;;13.82;;
22046;SDS011;11187;49.412;20.956;2023-03-11T13:55:46;13.25;;;12.45;;
22046;SDS011;11187;49.412;20.956;2023-03-11T14:01:20;14.52;;;13.60;;
22046;SDS011;11187;49.412;20.956;2023-03-11T14:04:15;13.55;;;12.75;;
22046;SDS011;11187;49.412;20.956;2023-03-11T14:06:56;14.70;;;13.85;;
22046;SDS011;11187;49.412;20.956;2023-03-11T14:09:43;14.13;;;13.23;;
22046;SDS011;11187;49.412;20.956;2023-03-11T14:12:17;17.40;;;16.30;;
22046;SDS011;11187;49.412;20.956;2023-03-11T14:15:04;16.30;;;15.00;;
22046;SDS011;11187;49.412;20.956;2023-03-11T14:17:39;16.08;;;14.82;;
22046;SDS011;11187;49.412;20.956;2023-03-11T14:20:33;14.93;;;13.93;;
22046;SDS011;11187;49.412;20.956;2023-03-11T14:23:29;13.70;;;12.68;;
22046;SDS011;11187;49.412;20.956;2023-03-11T14:26:13;14.88;;;13.98;;
22046;SDS011;11187;49.412;20.956;2023-03-11T14:29:08;13.52;;;12.65;;
22046;SDS011;11187;49.412;20.956;2023-03-11T14:31:46;14.00;;;13.05;;
22046;SDS011;11187;49.412;20.956;2023-03-11T14:34:38;13.07;;;12.18;;
22046;SDS011;11187;49.412;20.956;2023-03-11T14:40:33;13.05;;;12.07;;
22046;SDS011;11187;49.412;20.956;2023-03-11T14:43:16;11.75;;;10.85;;
22046;SDS011;11187;49.412;20.956;2023-03-11T14:46:18;14.73;;;13.63;;
22046;SDS011;11187;49.412;20.956;2023-03-11T14:48:56;14.00;;;13.00;;
22046;SDS011;11187;49.412;20.956;2023-03-11T14:51:57;13.77;;;12.80;;
22046;SDS011;11187;49.412;20.956;2023-03-11T14:54:35;11.52;;;10.73;;
22046;SDS011;11187;49.412;20.956;2023-03-11T14:57:38;16.73;;;15.57;;
22046;SDS011;11187;49.412;20.956;2023-03-11T15:00:21;13.65;;;12.65;;
22046;SDS011;11187;49.412;20.956;2023-03-11T15:08:57;13.90;;;12.80;;
22046;SDS011;11187;49.412;20.956;2023-03-11T15:11:58;11.43;;;10.52;;
22046;SDS011;11187;49.412;20.956;2023-03-11T15:14:53;11.57;;;10.63;;
22046;SDS011;11187;49.412;20.956;2023-03-11T15:17:27;10.48;;;9.68;;
22046;SDS011;11187;49.412;20.956;2023-03-11T15:23:03;11.95;;;11.07;;
22046;SDS011;11187;49.412;20.956;2023-03-11T15:25:51;12.32;;;11.38;;
22046;SDS011;11187;49.412;20.956;2023-03-11T15:28:28;11.30;;;10.43;;
22046;SDS011;11187;49.412;20.956;2023-03-11T15:33:54;12.07;;;11.18;;
22046;SDS011;11187;49.412;20.956;2023-03-11T15:42:21;12.07;;;11.27;;
22046;SDS011;11187;49.412;20.956;2023-03-11T15:45:17;12.50;;;11.60;;
22046;SDS011;11187;49.412;20.956;2023-03-11T15:47:53;12.25;;;11.07;;
22046;SDS011;11187;49.412;20.956;2023-03-11T15:53:44;12.32;;;11.32;;
22046;SDS011;11187;49.412;20.956;2023-03-11T15:56:38;13.88;;;11.98;;
22046;SDS011;11187;49.412;20.956;2023-03-11T15:59:13;13.20;;;12.40;;
22046;SDS011;11187;49.412;20.956;2023-03-11T16:02:01;14.55;;;13.52;;
22046;SDS011;11187;49.412;20.956;2023-03-11T16:04:36;12.60;;;11.38;;
22046;SDS011;11187;49.412;20.956;2023-03-11T16:07:29;13.25;;;12.25;;
22046;SDS011;11187;49.412;20.956;2023-03-11T16:10:06;14.75;;;13.75;;
22046;SDS011;11187;49.412;20.956;2023-03-11T16:12:53;15.60;;;14.50;;
22046;SDS011;11187;49.412;20.956;2023-03-11T16:15:35;13.63;;;12.63;;
22046;SDS011;11187;49.412;20.956;2023-03-11T16:18:30;13.90;;;12.88;;
22046;SDS011;11187;49.412;20.956;2023-03-11T16:21:05;13.77;;;12.77;;
22046;SDS011;11187;49.412;20.956;2023-03-11T16:23:51;12.63;;;11.73;;
22046;SDS011;11187;49.412;20.956;2023-03-11T16:26:25;13.38;;;12.18;;
22046;SDS011;11187;49.412;20.956;2023-03-11T16:29:11;12.52;;;11.63;;
22046;SDS011;11187;49.412;20.956;2023-03-11T16:31:47;12.02;;;11.02;;
22046;SDS011;11187;49.412;20.956;2023-03-11T16:34:33;13.75;;;12.77;;
22046;SDS011;11187;49.412;20.956;2023-03-11T16:37:07;13.55;;;12.55;;
22046;SDS011;11187;49.412;20.956;2023-03-11T16:40:06;12.55;;;11.55;;
22046;SDS011;11187;49.412;20.956;2023-03-11T16:43:04;13.80;;;12.70;;
22046;SDS011;11187;49.412;20.956;2023-03-11T16:46:02;13.88;;;12.75;;
22046;SDS011;11187;49.412;20.956;2023-03-11T16:48:56;13.90;;;12.90;;
22046;SDS011;11187;49.412;20.956;2023-03-11T16:51:50;14.82;;;13.32;;
22046;SDS011;11187;49.412;20.956;2023-03-11T16:54:44;13.25;;;12.32;;
22046;SDS011;11187;49.412;20.956;2023-03-11T16:57:18;13.77;;;12.68;;
22046;SDS011;11187;49.412;20.956;2023-03-11T17:00:12;15.35;;;14.10;;
22046;SDS011;11187;49.412;20.956;2023-03-11T17:02:47;15.77;;;14.48;;
22046;SDS011;11187;49.412;20.956;2023-03-11T17:05:40;13.98;;;12.85;;
22046;SDS011;11187;49.412;20.956;2023-03-11T17:08:15;14.52;;;13.43;;
22046;SDS011;11187;49.412;20.956;2023-03-11T17:11:14;14.82;;;13.55;;
22046;SDS011;11187;49.412;20.956;2023-03-11T17:14:09;15.55;;;14.38;;
22046;SDS011;11187;49.412;20.956;2023-03-11T17:16:43;14.05;;;13.07;;
22046;SDS011;11187;49.412;20.956;2023-03-11T17:19:29;14.38;;;13.35;;
22046;SDS011;11187;49.412;20.956;2023-03-11T17:22:03;18.52;;;17.13;;
22046;SDS011;11187;49.412;20.956;2023-03-11T17:24:49;16.88;;;15.57;;
22046;SDS011;11187;49.412;20.956;2023-03-11T17:27:23;16.10;;;14.68;;
22046;SDS011;11187;49.412;20.956;2023-03-11T17:30:11;14.95;;;13.65;;
22046;SDS011;11187;49.412;20.956;2023-03-11T17:33:01;17.20;;;15.90;;
22046;SDS011;11187;49.412;20.956;2023-03-11T17:36:05;16.25;;;15.05;;
22046;SDS011;11187;49.412;20.956;2023-03-11T17:39:01;17.20;;;15.98;;
22046;SDS011;11187;49.412;20.956;2023-03-11T17:41:55;17.60;;;16.27;;
22046;SDS011;11187;49.412;20.956;2023-03-11T17:44:29;15.73;;;14.23;;
22046;SDS011;11187;49.412;20.956;2023-03-11T17:47:30;15.82;;;14.52;;